sensor_id;sensor_type;location;lat;lon;timestamp;P1;durP1;ratioP1;P2;durP2;ratioP2
66721;SDS011;53633;49.932;10.884;2022-12-18T00:02:13;50.53;;;16.17;;
66721;SDS011;53633;49.932;10.884;2022-12-18T00:04:40;42.78;;;14.52;;
66721;SDS011;53633;49.932;10.884;2022-12-18T00:07:06;44.77;;;14.23;;
66721;SDS011;53633;49.932;10.884;2022-12-18T00:09:34;50.20;;;15.05;;
66721;SDS011;53633;49.932;10.884;2022-12-18T00:12:05;35.38;;;13.90;;
66721;SDS011;53633;49.932;10.884;2022-12-18T00:14:44;35.38;;;14.07;;
66721;SDS011;53633;49.932;10.884;2022-12-18T00:17:11;42.85;;;14.45;;
66721;SDS011;53633;49.932;10.884;2022-12-18T00:19:38;41.43;;;14.73;;
66721;SDS011;53633;49.932;10.884;2022-12-18T00:22:05;41.03;;;14.13;;
66721;SDS011;53633;49.932;10.884;2022-12-18T00:24:31;43.42;;;13.65;;
66721;SDS011;53633;49.932;10.884;2022-12-18T00:26:59;35.25;;;12.27;;
66721;SDS011;53633;49.932;10.884;2022-12-18T00:29:26;35.05;;;12.50;;
66721;SDS011;53633;49.932;10.884;2022-12-18T00:31:53;34.63;;;12.43;;
66721;SDS011;53633;49.932;10.884;2022-12-18T00:34:19;48.58;;;15.93;;
66721;SDS011;53633;49.932;10.884;2022-12-18T00:36:47;36.88;;;12.57;;
66721;SDS011;53633;49.932;10.884;2022-12-18T00:39:14;41.72;;;13.93;;
66721;SDS011;53633;49.932;10.884;2022-12-18T00:41:41;36.30;;;13.80;;
66721;SDS011;53633;49.932;10.884;2022-12-18T00:44:09;44.57;;;13.90;;
66721;SDS011;53633;49.932;10.884;2022-12-18T00:46:37;36.65;;;13.18;;
66721;SDS011;53633;49.932;10.884;2022-12-18T00:49:04;37.47;;;13.80;;
66721;SDS011;53633;49.932;10.884;2022-12-18T00:51:31;34.90;;;13.18;;
66721;SDS011;53633;49.932;10.884;2022-12-18T00:53:58;37.05;;;13.38;;
66721;SDS011;53633;49.932;10.884;2022-12-18T00:56:25;35.87;;;13.67;;
66721;SDS011;53633;49.932;10.884;2022-12-18T00:58:52;39.03;;;12.55;;
66721;SDS011;53633;49.932;10.884;2022-12-18T01:01:20;45.80;;;13.32;;
66721;SDS011;53633;49.932;10.884;2022-12-18T01:03:47;30.65;;;11.73;;
66721;SDS011;53633;49.932;10.884;2022-12-18T01:06:14;35.63;;;11.43;;
66721;SDS011;53633;49.932;10.884;2022-12-18T01:08:42;37.33;;;13.33;;
66721;SDS011;53633;49.932;10.884;2022-12-18T01:11:09;29.48;;;11.43;;
66721;SDS011;53633;49.932;10.884;2022-12-18T01:13:37;29.45;;;10.85;;
66721;SDS011;53633;49.932;10.884;2022-12-18T01:16:05;33.30;;;12.63;;
66721;SDS011;53633;49.932;10.884;2022-12-18T01:18:33;36.85;;;12.10;;
66721;SDS011;53633;49.932;10.884;2022-12-18T01:21:00;33.97;;;11.30;;
66721;SDS011;53633;49.932;10.884;2022-12-18T01:23:27;42.80;;;12.10;;
66721;SDS011;53633;49.932;10.884;2022-12-18T01:25:53;42.20;;;13.13;;
66721;SDS011;53633;49.932;10.884;2022-12-18T01:28:20;39.13;;;13.13;;
66721;SDS011;53633;49.932;10.884;2022-12-18T01:30:46;38.05;;;12.45;;
66721;SDS011;53633;49.932;10.884;2022-12-18T01:33:13;37.07;;;12.53;;
66721;SDS011;53633;49.932;10.884;2022-12-18T01:35:41;38.42;;;12.52;;
66721;SDS011;53633;49.932;10.884;2022-12-18T01:38:09;34.42;;;12.20;;
66721;SDS011;53633;49.932;10.884;2022-12-18T01:40:36;31.70;;;12.48;;
66721;SDS011;53633;49.932;10.884;2022-12-18T01:43:03;40.65;;;12.45;;
66721;SDS011;53633;49.932;10.884;2022-12-18T01:45:30;40.83;;;12.93;;
66721;SDS011;53633;49.932;10.884;2022-12-18T01:47:58;44.58;;;14.07;;
66721;SDS011;53633;49.932;10.884;2022-12-18T01:50:28;44.08;;;12.95;;
66721;SDS011;53633;49.932;10.884;2022-12-18T01:52:59;41.58;;;12.60;;
66721;SDS011;53633;49.932;10.884;2022-12-18T01:55:31;37.40;;;12.95;;
66721;SDS011;53633;49.932;10.884;2022-12-18T01:58:01;40.93;;;12.60;;
66721;SDS011;53633;49.932;10.884;2022-12-18T02:00:28;39.55;;;12.00;;
66721;SDS011;53633;49.932;10.884;2022-12-18T02:02:55;42.17;;;12.48;;
66721;SDS011;53633;49.932;10.884;2022-12-18T02:05:25;41.85;;;13.70;;
66721;SDS011;53633;49.932;10.884;2022-12-18T02:08:01;42.35;;;12.05;;
66721;SDS011;53633;49.932;10.884;2022-12-18T02:10:35;42.77;;;12.23;;
66721;SDS011;53633;49.932;10.884;2022-12-18T02:13:12;30.52;;;11.02;;
66721;SDS011;53633;49.932;10.884;2022-12-18T02:15:42;33.42;;;12.05;;
66721;SDS011;53633;49.932;10.884;2022-12-18T02:18:14;34.55;;;12.23;;
66721;SDS011;53633;49.932;10.884;2022-12-18T02:20:47;40.10;;;13.13;;
66721;SDS011;53633;49.932;10.884;2022-12-18T02:23:20;35.17;;;11.80;;
66721;SDS011;53633;49.932;10.884;2022-12-18T02:26:06;44.60;;;12.77;;
66721;SDS011;53633;49.932;10.884;2022-12-18T02:28:40;36.75;;;13.23;;
66721;SDS011;53633;49.932;10.884;2022-12-18T02:31:10;33.47;;;12.27;;
66721;SDS011;53633;49.932;10.884;2022-12-18T02:33:40;30.50;;;11.02;;
66721;SDS011;53633;49.932;10.884;2022-12-18T02:36:10;36.77;;;12.07;;
66721;SDS011;53633;49.932;10.884;2022-12-18T02:38:38;31.70;;;11.48;;
66721;SDS011;53633;49.932;10.884;2022-12-18T02:41:07;34.55;;;11.52;;
66721;SDS011;53633;49.932;10.884;2022-12-18T02:43:34;35.50;;;11.52;;
66721;SDS011;53633;49.932;10.884;2022-12-18T02:48:54;32.03;;;11.20;;
66721;SDS011;53633;49.932;10.884;2022-12-18T02:51:30;37.63;;;12.05;;
66721;SDS011;53633;49.932;10.884;2022-12-18T02:54:05;34.50;;;11.13;;
66721;SDS011;53633;49.932;10.884;2022-12-18T02:56:38;36.42;;;11.10;;
66721;SDS011;53633;49.932;10.884;2022-12-18T02:59:12;36.90;;;10.98;;
66721;SDS011;53633;49.932;10.884;2022-12-18T03:01:43;30.27;;;10.83;;
66721;SDS011;53633;49.932;10.884;2022-12-18T03:04:18;38.10;;;10.45;;
66721;SDS011;53633;49.932;10.884;2022-12-18T03:06:49;30.08;;;9.95;;
66721;SDS011;53633;49.932;10.884;2022-12-18T03:09:20;31.77;;;10.80;;
66721;SDS011;53633;49.932;10.884;2022-12-18T03:11:56;32.22;;;10.98;;
66721;SDS011;53633;49.932;10.884;2022-12-18T03:14:26;29.77;;;9.83;;
66721;SDS011;53633;49.932;10.884;2022-12-18T03:16:57;34.60;;;11.00;;
66721;SDS011;53633;49.932;10.884;2022-12-18T03:19:28;32.95;;;10.45;;
66721;SDS011;53633;49.932;10.884;2022-12-18T03:21:57;32.97;;;11.40;;
66721;SDS011;53633;49.932;10.884;2022-12-18T03:24:26;29.92;;;10.20;;
66721;SDS011;53633;49.932;10.884;2022-12-18T03:26:57;28.47;;;10.73;;
66721;SDS011;53633;49.932;10.884;2022-12-18T03:29:31;26.67;;;10.60;;
66721;SDS011;53633;49.932;10.884;2022-12-18T03:32:03;28.92;;;9.02;;
66721;SDS011;53633;49.932;10.884;2022-12-18T03:34:34;30.38;;;11.18;;
66721;SDS011;53633;49.932;10.884;2022-12-18T03:37:03;30.10;;;9.95;;
66721;SDS011;53633;49.932;10.884;2022-12-18T03:39:30;32.43;;;10.90;;
66721;SDS011;53633;49.932;10.884;2022-12-18T03:42:01;30.85;;;11.48;;
66721;SDS011;53633;49.932;10.884;2022-12-18T03:44:34;34.60;;;11.98;;
66721;SDS011;53633;49.932;10.884;2022-12-18T03:47:06;28.83;;;10.45;;
66721;SDS011;53633;49.932;10.884;2022-12-18T03:49:39;38.60;;;11.55;;
66721;SDS011;53633;49.932;10.884;2022-12-18T03:52:15;36.03;;;11.77;;
66721;SDS011;53633;49.932;10.884;2022-12-18T03:54:47;34.10;;;11.68;;
66721;SDS011;53633;49.932;10.884;2022-12-18T03:57:16;32.83;;;10.95;;
66721;SDS011;53633;49.932;10.884;2022-12-18T03:59:45;36.90;;;11.35;;
66721;SDS011;53633;49.932;10.884;2022-12-18T04:02:13;36.17;;;9.90;;
66721;SDS011;53633;49.932;10.884;2022-12-18T04:04:42;35.80;;;9.83;;
66721;SDS011;53633;49.932;10.884;2022-12-18T04:07:10;37.33;;;11.02;;
66721;SDS011;53633;49.932;10.884;2022-12-18T04:09:39;29.60;;;9.73;;
66721;SDS011;53633;49.932;10.884;2022-12-18T04:12:08;38.75;;;11.63;;
66721;SDS011;53633;49.932;10.884;2022-12-18T04:14:36;32.03;;;11.00;;
66721;SDS011;53633;49.932;10.884;2022-12-18T04:17:03;32.73;;;11.17;;
66721;SDS011;53633;49.932;10.884;2022-12-18T04:19:30;28.63;;;9.98;;
66721;SDS011;53633;49.932;10.884;2022-12-18T04:21:56;28.83;;;9.93;;
66721;SDS011;53633;49.932;10.884;2022-12-18T04:24:23;34.72;;;11.40;;
66721;SDS011;53633;49.932;10.884;2022-12-18T04:26:49;39.13;;;11.30;;
66721;SDS011;53633;49.932;10.884;2022-12-18T04:29:16;32.87;;;10.13;;
66721;SDS011;53633;49.932;10.884;2022-12-18T04:31:44;31.60;;;10.00;;
66721;SDS011;53633;49.932;10.884;2022-12-18T04:34:11;32.63;;;9.55;;
66721;SDS011;53633;49.932;10.884;2022-12-18T04:36:38;32.67;;;9.98;;
66721;SDS011;53633;49.932;10.884;2022-12-18T04:39:04;28.10;;;10.48;;
66721;SDS011;53633;49.932;10.884;2022-12-18T04:41:31;35.03;;;10.47;;
66721;SDS011;53633;49.932;10.884;2022-12-18T04:43:57;26.67;;;9.30;;
66721;SDS011;53633;49.932;10.884;2022-12-18T04:46:24;30.13;;;10.70;;
66721;SDS011;53633;49.932;10.884;2022-12-18T04:48:52;29.83;;;10.77;;
66721;SDS011;53633;49.932;10.884;2022-12-18T04:51:19;26.92;;;11.00;;
66721;SDS011;53633;49.932;10.884;2022-12-18T04:53:51;30.50;;;9.57;;
66721;SDS011;53633;49.932;10.884;2022-12-18T04:56:18;27.23;;;9.25;;
66721;SDS011;53633;49.932;10.884;2022-12-18T04:58:45;30.42;;;10.45;;
66721;SDS011;53633;49.932;10.884;2022-12-18T05:01:12;29.50;;;10.40;;
66721;SDS011;53633;49.932;10.884;2022-12-18T05:03:40;29.63;;;10.38;;
66721;SDS011;53633;49.932;10.884;2022-12-18T05:06:09;28.17;;;9.90;;
66721;SDS011;53633;49.932;10.884;2022-12-18T05:08:36;30.05;;;10.40;;
66721;SDS011;53633;49.932;10.884;2022-12-18T05:11:03;28.77;;;10.20;;
66721;SDS011;53633;49.932;10.884;2022-12-18T05:13:32;34.70;;;12.38;;
66721;SDS011;53633;49.932;10.884;2022-12-18T05:16:00;30.75;;;11.63;;
66721;SDS011;53633;49.932;10.884;2022-12-18T05:18:26;34.37;;;10.83;;
66721;SDS011;53633;49.932;10.884;2022-12-18T05:20:53;40.03;;;11.95;;
66721;SDS011;53633;49.932;10.884;2022-12-18T05:23:22;32.45;;;10.82;;
66721;SDS011;53633;49.932;10.884;2022-12-18T05:25:50;31.80;;;11.13;;
66721;SDS011;53633;49.932;10.884;2022-12-18T05:28:17;31.92;;;11.95;;
66721;SDS011;53633;49.932;10.884;2022-12-18T05:30:47;28.53;;;9.93;;
66721;SDS011;53633;49.932;10.884;2022-12-18T05:33:14;30.52;;;10.55;;
66721;SDS011;53633;49.932;10.884;2022-12-18T05:35:41;30.25;;;11.15;;
66721;SDS011;53633;49.932;10.884;2022-12-18T05:38:07;24.77;;;9.93;;
66721;SDS011;53633;49.932;10.884;2022-12-18T05:40:35;29.33;;;10.68;;
66721;SDS011;53633;49.932;10.884;2022-12-18T05:43:02;35.73;;;11.43;;
66721;SDS011;53633;49.932;10.884;2022-12-18T05:45:28;30.17;;;10.25;;
66721;SDS011;53633;49.932;10.884;2022-12-18T05:47:55;32.00;;;12.73;;
66721;SDS011;53633;49.932;10.884;2022-12-18T05:50:22;29.02;;;11.32;;
66721;SDS011;53633;49.932;10.884;2022-12-18T05:52:49;32.33;;;10.57;;
66721;SDS011;53633;49.932;10.884;2022-12-18T05:55:16;34.03;;;11.87;;
66721;SDS011;53633;49.932;10.884;2022-12-18T05:57:44;31.35;;;11.48;;
66721;SDS011;53633;49.932;10.884;2022-12-18T06:00:11;30.55;;;11.65;;
66721;SDS011;53633;49.932;10.884;2022-12-18T06:02:39;32.45;;;11.52;;
66721;SDS011;53633;49.932;10.884;2022-12-18T06:05:06;29.05;;;10.60;;
66721;SDS011;53633;49.932;10.884;2022-12-18T06:07:33;27.73;;;10.50;;
66721;SDS011;53633;49.932;10.884;2022-12-18T06:09:59;36.88;;;11.40;;
66721;SDS011;53633;49.932;10.884;2022-12-18T06:12:26;33.40;;;9.50;;
66721;SDS011;53633;49.932;10.884;2022-12-18T06:14:54;32.42;;;10.80;;
66721;SDS011;53633;49.932;10.884;2022-12-18T06:17:20;24.42;;;9.30;;
66721;SDS011;53633;49.932;10.884;2022-12-18T06:19:47;28.43;;;10.50;;
66721;SDS011;53633;49.932;10.884;2022-12-18T06:22:14;27.13;;;11.30;;
66721;SDS011;53633;49.932;10.884;2022-12-18T06:24:40;31.80;;;9.82;;
66721;SDS011;53633;49.932;10.884;2022-12-18T06:27:07;34.97;;;11.25;;
66721;SDS011;53633;49.932;10.884;2022-12-18T06:29:33;25.23;;;9.75;;
66721;SDS011;53633;49.932;10.884;2022-12-18T06:32:01;27.33;;;10.03;;
66721;SDS011;53633;49.932;10.884;2022-12-18T06:34:28;30.17;;;10.40;;
66721;SDS011;53633;49.932;10.884;2022-12-18T06:36:55;29.63;;;10.30;;
66721;SDS011;53633;49.932;10.884;2022-12-18T06:39:21;33.50;;;11.02;;
66721;SDS011;53633;49.932;10.884;2022-12-18T06:41:48;30.55;;;11.82;;
66721;SDS011;53633;49.932;10.884;2022-12-18T06:44:15;30.20;;;10.13;;
66721;SDS011;53633;49.932;10.884;2022-12-18T06:46:41;22.38;;;8.95;;
66721;SDS011;53633;49.932;10.884;2022-12-18T06:49:10;28.13;;;10.23;;
66721;SDS011;53633;49.932;10.884;2022-12-18T06:51:37;31.40;;;10.82;;
66721;SDS011;53633;49.932;10.884;2022-12-18T06:54:03;28.05;;;10.57;;
66721;SDS011;53633;49.932;10.884;2022-12-18T06:56:30;42.03;;;11.33;;
66721;SDS011;53633;49.932;10.884;2022-12-18T06:58:57;29.88;;;10.60;;
66721;SDS011;53633;49.932;10.884;2022-12-18T07:01:23;28.83;;;10.20;;
66721;SDS011;53633;49.932;10.884;2022-12-18T07:03:51;31.02;;;10.40;;
66721;SDS011;53633;49.932;10.884;2022-12-18T07:06:21;33.67;;;10.82;;
66721;SDS011;53633;49.932;10.884;2022-12-18T07:08:49;33.80;;;11.70;;
66721;SDS011;53633;49.932;10.884;2022-12-18T07:11:17;31.20;;;11.75;;
66721;SDS011;53633;49.932;10.884;2022-12-18T07:13:44;41.38;;;11.90;;
66721;SDS011;53633;49.932;10.884;2022-12-18T07:16:12;31.95;;;11.98;;
66721;SDS011;53633;49.932;10.884;2022-12-18T07:18:49;33.17;;;11.57;;
66721;SDS011;53633;49.932;10.884;2022-12-18T07:21:16;29.63;;;11.07;;
66721;SDS011;53633;49.932;10.884;2022-12-18T07:23:46;25.33;;;10.23;;
66721;SDS011;53633;49.932;10.884;2022-12-18T07:26:13;27.77;;;10.07;;
66721;SDS011;53633;49.932;10.884;2022-12-18T07:28:40;36.90;;;11.40;;
66721;SDS011;53633;49.932;10.884;2022-12-18T07:31:08;29.85;;;10.70;;
66721;SDS011;53633;49.932;10.884;2022-12-18T07:33:37;31.27;;;10.40;;
66721;SDS011;53633;49.932;10.884;2022-12-18T07:36:05;28.83;;;11.02;;
66721;SDS011;53633;49.932;10.884;2022-12-18T07:38:34;31.30;;;8.90;;
66721;SDS011;53633;49.932;10.884;2022-12-18T07:41:03;33.30;;;10.45;;
66721;SDS011;53633;49.932;10.884;2022-12-18T07:43:32;30.80;;;9.98;;
66721;SDS011;53633;49.932;10.884;2022-12-18T07:45:58;31.83;;;10.37;;
66721;SDS011;53633;49.932;10.884;2022-12-18T07:48:25;32.00;;;11.68;;
66721;SDS011;53633;49.932;10.884;2022-12-18T07:50:52;33.05;;;10.93;;
66721;SDS011;53633;49.932;10.884;2022-12-18T07:53:18;33.85;;;12.25;;
66721;SDS011;53633;49.932;10.884;2022-12-18T07:55:45;32.90;;;11.43;;
66721;SDS011;53633;49.932;10.884;2022-12-18T07:58:35;28.03;;;11.97;;
66721;SDS011;53633;49.932;10.884;2022-12-18T08:01:02;33.20;;;11.77;;
66721;SDS011;53633;49.932;10.884;2022-12-18T08:03:31;33.95;;;10.73;;
66721;SDS011;53633;49.932;10.884;2022-12-18T08:05:59;30.10;;;10.82;;
66721;SDS011;53633;49.932;10.884;2022-12-18T08:08:26;31.95;;;11.13;;
66721;SDS011;53633;49.932;10.884;2022-12-18T08:10:53;30.07;;;10.93;;
66721;SDS011;53633;49.932;10.884;2022-12-18T08:13:20;35.00;;;10.82;;
66721;SDS011;53633;49.932;10.884;2022-12-18T08:15:56;38.17;;;13.00;;
66721;SDS011;53633;49.932;10.884;2022-12-18T08:18:23;28.25;;;11.55;;
66721;SDS011;53633;49.932;10.884;2022-12-18T08:20:50;34.60;;;11.25;;
66721;SDS011;53633;49.932;10.884;2022-12-18T08:23:16;31.97;;;11.67;;
66721;SDS011;53633;49.932;10.884;2022-12-18T08:25:43;35.85;;;12.27;;
66721;SDS011;53633;49.932;10.884;2022-12-18T08:28:10;30.17;;;10.57;;
66721;SDS011;53633;49.932;10.884;2022-12-18T08:30:36;30.30;;;12.07;;
66721;SDS011;53633;49.932;10.884;2022-12-18T08:33:05;35.83;;;12.70;;
66721;SDS011;53633;49.932;10.884;2022-12-18T08:35:34;35.30;;;12.20;;
66721;SDS011;53633;49.932;10.884;2022-12-18T08:38:07;29.35;;;10.98;;
66721;SDS011;53633;49.932;10.884;2022-12-18T08:40:34;40.40;;;12.38;;
66721;SDS011;53633;49.932;10.884;2022-12-18T08:43:02;37.60;;;13.55;;
66721;SDS011;53633;49.932;10.884;2022-12-18T08:45:28;34.45;;;12.85;;
66721;SDS011;53633;49.932;10.884;2022-12-18T08:47:59;40.97;;;13.07;;
66721;SDS011;53633;49.932;10.884;2022-12-18T08:50:27;37.63;;;11.57;;
66721;SDS011;53633;49.932;10.884;2022-12-18T08:52:53;39.45;;;12.23;;
66721;SDS011;53633;49.932;10.884;2022-12-18T08:55:20;34.80;;;12.48;;
66721;SDS011;53633;49.932;10.884;2022-12-18T08:57:48;32.90;;;12.77;;
66721;SDS011;53633;49.932;10.884;2022-12-18T09:00:15;38.93;;;12.00;;
66721;SDS011;53633;49.932;10.884;2022-12-18T09:02:42;36.03;;;11.98;;
66721;SDS011;53633;49.932;10.884;2022-12-18T09:05:09;37.67;;;13.15;;
66721;SDS011;53633;49.932;10.884;2022-12-18T09:07:37;37.67;;;13.18;;
66721;SDS011;53633;49.932;10.884;2022-12-18T09:10:04;36.17;;;12.88;;
66721;SDS011;53633;49.932;10.884;2022-12-18T09:12:32;35.73;;;12.33;;
66721;SDS011;53633;49.932;10.884;2022-12-18T09:14:58;38.50;;;12.60;;
66721;SDS011;53633;49.932;10.884;2022-12-18T09:17:25;41.40;;;13.13;;
66721;SDS011;53633;49.932;10.884;2022-12-18T09:19:52;36.95;;;12.43;;
66721;SDS011;53633;49.932;10.884;2022-12-18T09:22:18;34.42;;;12.23;;
66721;SDS011;53633;49.932;10.884;2022-12-18T09:24:46;35.33;;;11.90;;
66721;SDS011;53633;49.932;10.884;2022-12-18T09:27:15;28.63;;;11.07;;
66721;SDS011;53633;49.932;10.884;2022-12-18T09:29:41;40.92;;;13.40;;
66721;SDS011;53633;49.932;10.884;2022-12-18T09:32:08;41.50;;;13.68;;
66721;SDS011;53633;49.932;10.884;2022-12-18T09:34:34;37.63;;;12.45;;
66721;SDS011;53633;49.932;10.884;2022-12-18T09:37:01;39.73;;;12.83;;
66721;SDS011;53633;49.932;10.884;2022-12-18T09:39:28;34.20;;;11.05;;
66721;SDS011;53633;49.932;10.884;2022-12-18T09:41:57;31.15;;;11.25;;
66721;SDS011;53633;49.932;10.884;2022-12-18T09:44:24;38.70;;;12.60;;
66721;SDS011;53633;49.932;10.884;2022-12-18T09:46:54;31.83;;;11.82;;
66721;SDS011;53633;49.932;10.884;2022-12-18T09:49:28;33.97;;;13.57;;
66721;SDS011;53633;49.932;10.884;2022-12-18T09:51:58;35.10;;;11.27;;
66721;SDS011;53633;49.932;10.884;2022-12-18T09:54:30;35.95;;;12.35;;
66721;SDS011;53633;49.932;10.884;2022-12-18T09:57:02;41.17;;;12.82;;
66721;SDS011;53633;49.932;10.884;2022-12-18T09:59:30;30.88;;;10.57;;
66721;SDS011;53633;49.932;10.884;2022-12-18T10:02:00;33.77;;;11.53;;
66721;SDS011;53633;49.932;10.884;2022-12-18T10:04:44;33.95;;;11.30;;
66721;SDS011;53633;49.932;10.884;2022-12-18T10:07:21;27.85;;;10.68;;
66721;SDS011;53633;49.932;10.884;2022-12-18T10:09:55;32.65;;;10.73;;
66721;SDS011;53633;49.932;10.884;2022-12-18T10:12:30;41.55;;;11.45;;
66721;SDS011;53633;49.932;10.884;2022-12-18T10:15:01;31.07;;;11.17;;
66721;SDS011;53633;49.932;10.884;2022-12-18T10:17:35;34.17;;;12.63;;
66721;SDS011;53633;49.932;10.884;2022-12-18T10:20:10;29.23;;;10.32;;
66721;SDS011;53633;49.932;10.884;2022-12-18T10:22:47;38.85;;;11.18;;
66721;SDS011;53633;49.932;10.884;2022-12-18T10:25:22;30.05;;;10.45;;
66721;SDS011;53633;49.932;10.884;2022-12-18T10:27:54;35.80;;;11.97;;
66721;SDS011;53633;49.932;10.884;2022-12-18T10:30:24;32.55;;;11.27;;
66721;SDS011;53633;49.932;10.884;2022-12-18T10:32:51;32.38;;;11.07;;
66721;SDS011;53633;49.932;10.884;2022-12-18T10:35:19;32.17;;;10.75;;
66721;SDS011;53633;49.932;10.884;2022-12-18T10:38:00;30.60;;;11.23;;
66721;SDS011;53633;49.932;10.884;2022-12-18T10:40:32;33.37;;;11.60;;
66721;SDS011;53633;49.932;10.884;2022-12-18T10:43:15;36.00;;;12.40;;
66721;SDS011;53633;49.932;10.884;2022-12-18T10:45:57;30.10;;;11.30;;
66721;SDS011;53633;49.932;10.884;2022-12-18T10:48:28;30.65;;;10.82;;
66721;SDS011;53633;49.932;10.884;2022-12-18T10:50:56;33.10;;;10.95;;
66721;SDS011;53633;49.932;10.884;2022-12-18T10:53:38;30.83;;;11.77;;
66721;SDS011;53633;49.932;10.884;2022-12-18T10:56:08;28.50;;;9.93;;
66721;SDS011;53633;49.932;10.884;2022-12-18T10:58:36;29.63;;;10.65;;
66721;SDS011;53633;49.932;10.884;2022-12-18T11:01:06;34.80;;;10.73;;
66721;SDS011;53633;49.932;10.884;2022-12-18T11:03:35;35.25;;;11.05;;
66721;SDS011;53633;49.932;10.884;2022-12-18T11:06:04;31.80;;;9.97;;
66721;SDS011;53633;49.932;10.884;2022-12-18T11:08:33;36.50;;;10.05;;
66721;SDS011;53633;49.932;10.884;2022-12-18T11:11:00;28.40;;;10.63;;
66721;SDS011;53633;49.932;10.884;2022-12-18T11:13:27;34.13;;;10.95;;
66721;SDS011;53633;49.932;10.884;2022-12-18T11:15:57;31.08;;;11.02;;
66721;SDS011;53633;49.932;10.884;2022-12-18T11:18:26;40.43;;;11.93;;
66721;SDS011;53633;49.932;10.884;2022-12-18T11:20:55;32.92;;;9.95;;
66721;SDS011;53633;49.932;10.884;2022-12-18T11:23:24;30.15;;;11.25;;
66721;SDS011;53633;49.932;10.884;2022-12-18T11:25:56;36.58;;;11.27;;
66721;SDS011;53633;49.932;10.884;2022-12-18T11:28:28;40.45;;;11.32;;
66721;SDS011;53633;49.932;10.884;2022-12-18T11:33:56;30.58;;;10.82;;
66721;SDS011;53633;49.932;10.884;2022-12-18T11:36:47;32.97;;;10.15;;
66721;SDS011;53633;49.932;10.884;2022-12-18T11:39:16;32.78;;;11.63;;
66721;SDS011;53633;49.932;10.884;2022-12-18T11:41:49;31.88;;;10.80;;
66721;SDS011;53633;49.932;10.884;2022-12-18T11:44:19;34.43;;;11.93;;
66721;SDS011;53633;49.932;10.884;2022-12-18T11:46:52;30.58;;;10.93;;
66721;SDS011;53633;49.932;10.884;2022-12-18T11:49:26;34.25;;;11.13;;
66721;SDS011;53633;49.932;10.884;2022-12-18T11:51:58;31.73;;;10.35;;
66721;SDS011;53633;49.932;10.884;2022-12-18T11:54:27;31.90;;;10.73;;
66721;SDS011;53633;49.932;10.884;2022-12-18T11:56:56;32.03;;;10.63;;
66721;SDS011;53633;49.932;10.884;2022-12-18T11:59:31;33.67;;;11.38;;
66721;SDS011;53633;49.932;10.884;2022-12-18T12:02:14;36.92;;;13.00;;
66721;SDS011;53633;49.932;10.884;2022-12-18T12:04:59;34.88;;;11.13;;
66721;SDS011;53633;49.932;10.884;2022-12-18T12:07:35;34.53;;;11.82;;
66721;SDS011;53633;49.932;10.884;2022-12-18T12:10:14;31.60;;;11.87;;
66721;SDS011;53633;49.932;10.884;2022-12-18T12:12:52;35.22;;;11.80;;
66721;SDS011;53633;49.932;10.884;2022-12-18T12:15:32;39.67;;;12.25;;
66721;SDS011;53633;49.932;10.884;2022-12-18T12:18:08;30.73;;;11.35;;
66721;SDS011;53633;49.932;10.884;2022-12-18T12:20:49;37.42;;;12.25;;
66721;SDS011;53633;49.932;10.884;2022-12-18T12:23:26;32.17;;;11.30;;
66721;SDS011;53633;49.932;10.884;2022-12-18T12:26:02;28.77;;;11.15;;
66721;SDS011;53633;49.932;10.884;2022-12-18T12:28:46;38.60;;;11.85;;
66721;SDS011;53633;49.932;10.884;2022-12-18T12:31:23;32.47;;;11.25;;
66721;SDS011;53633;49.932;10.884;2022-12-18T12:34:04;29.80;;;11.15;;
66721;SDS011;53633;49.932;10.884;2022-12-18T12:36:40;31.60;;;11.73;;
66721;SDS011;53633;49.932;10.884;2022-12-18T12:39:16;38.60;;;11.70;;
66721;SDS011;53633;49.932;10.884;2022-12-18T12:41:48;31.45;;;10.75;;
66721;SDS011;53633;49.932;10.884;2022-12-18T12:44:16;40.13;;;13.38;;
66721;SDS011;53633;49.932;10.884;2022-12-18T12:46:46;34.58;;;11.85;;
66721;SDS011;53633;49.932;10.884;2022-12-18T12:49:17;30.80;;;11.63;;
66721;SDS011;53633;49.932;10.884;2022-12-18T12:51:50;32.78;;;11.02;;
66721;SDS011;53633;49.932;10.884;2022-12-18T12:54:24;40.80;;;12.13;;
66721;SDS011;53633;49.932;10.884;2022-12-18T12:56:54;35.45;;;12.25;;
66721;SDS011;53633;49.932;10.884;2022-12-18T12:59:28;30.17;;;11.45;;
66721;SDS011;53633;49.932;10.884;2022-12-18T13:02:04;28.57;;;11.73;;
66721;SDS011;53633;49.932;10.884;2022-12-18T13:04:45;35.97;;;12.00;;
66721;SDS011;53633;49.932;10.884;2022-12-18T13:07:17;36.10;;;12.23;;
66721;SDS011;53633;49.932;10.884;2022-12-18T13:12:54;33.28;;;11.73;;
66721;SDS011;53633;49.932;10.884;2022-12-18T13:15:23;34.00;;;11.77;;
66721;SDS011;53633;49.932;10.884;2022-12-18T13:18:05;34.72;;;12.63;;
66721;SDS011;53633;49.932;10.884;2022-12-18T13:20:44;42.00;;;14.07;;
66721;SDS011;53633;49.932;10.884;2022-12-18T13:23:27;60.92;;;20.08;;
66721;SDS011;53633;49.932;10.884;2022-12-18T13:25:56;60.90;;;18.00;;
66721;SDS011;53633;49.932;10.884;2022-12-18T13:28:49;56.03;;;22.53;;
66721;SDS011;53633;49.932;10.884;2022-12-18T13:34:17;49.92;;;18.10;;
66721;SDS011;53633;49.932;10.884;2022-12-18T13:36:57;43.28;;;17.45;;
66721;SDS011;53633;49.932;10.884;2022-12-18T13:40:02;42.10;;;16.52;;
66721;SDS011;53633;49.932;10.884;2022-12-18T13:42:49;34.27;;;14.17;;
66721;SDS011;53633;49.932;10.884;2022-12-18T13:48:12;39.65;;;14.75;;
66721;SDS011;53633;49.932;10.884;2022-12-18T13:50:42;51.55;;;18.85;;
66721;SDS011;53633;49.932;10.884;2022-12-18T13:53:13;44.60;;;16.00;;
66721;SDS011;53633;49.932;10.884;2022-12-18T13:55:47;48.23;;;16.70;;
66721;SDS011;53633;49.932;10.884;2022-12-18T13:58:15;44.60;;;16.10;;
66721;SDS011;53633;49.932;10.884;2022-12-18T14:00:43;44.80;;;14.88;;
66721;SDS011;53633;49.932;10.884;2022-12-18T14:03:18;35.55;;;13.98;;
66721;SDS011;53633;49.932;10.884;2022-12-18T14:05:52;39.45;;;17.05;;
66721;SDS011;53633;49.932;10.884;2022-12-18T14:08:24;39.47;;;16.17;;
66721;SDS011;53633;49.932;10.884;2022-12-18T14:10:55;34.67;;;13.52;;
66721;SDS011;53633;49.932;10.884;2022-12-18T14:13:24;38.00;;;14.25;;
66721;SDS011;53633;49.932;10.884;2022-12-18T14:15:54;38.15;;;14.38;;
66721;SDS011;53633;49.932;10.884;2022-12-18T14:18:25;38.03;;;13.80;;
66721;SDS011;53633;49.932;10.884;2022-12-18T14:21:02;35.50;;;12.03;;
66721;SDS011;53633;49.932;10.884;2022-12-18T14:23:32;38.08;;;13.32;;
66721;SDS011;53633;49.932;10.884;2022-12-18T14:26:00;34.67;;;12.40;;
66721;SDS011;53633;49.932;10.884;2022-12-18T14:28:31;38.55;;;14.23;;
66721;SDS011;53633;49.932;10.884;2022-12-18T14:30:58;39.22;;;13.48;;
66721;SDS011;53633;49.932;10.884;2022-12-18T14:33:25;41.67;;;14.33;;
66721;SDS011;53633;49.932;10.884;2022-12-18T14:35:55;34.78;;;14.05;;
66721;SDS011;53633;49.932;10.884;2022-12-18T14:38:24;33.13;;;12.48;;
66721;SDS011;53633;49.932;10.884;2022-12-18T14:40:58;37.67;;;13.00;;
66721;SDS011;53633;49.932;10.884;2022-12-18T14:43:26;41.92;;;15.45;;